Time;durP1;ratioP1;P1;durP2;ratioP2;P2;SDS_P1;SDS_P2;PMS_P1;PMS_P2;Temp;Humidity;BMP_temperature;BMP_pressure;BME280_temperature;BME280_humidity;BME280_pressure;Samples;Min_cycle;Max_cycle;Signal;HPM_P1;HPM_P2
2022/05/28 00:00:10;;;;;;;19.10;7.53;;;;;;;22.47;78.24;99096.63;5093222;28;20203;-58
2022/05/28 00:02:37;;;;;;;15.60;7.82;;;;;;;22.46;78.56;99095.78;5092537;28;20209;-58
2022/05/28 00:05:05;;;;;;;13.05;7.32;;;;;;;22.34;78.59;99074.84;5093205;28;20713;-57
2022/05/28 00:07:33;;;;;;;14.93;7.18;;;;;;;22.27;79.25;99078.97;5093179;28;20241;-58
2022/05/28 00:09:59;;;;;;;11.70;7.38;;;;;;;22.23;79.99;99082.84;5093159;28;20244;-58
2022/05/28 00:12:31;;;;;;;14.40;7.55;;;;;;;22.19;79.81;99082.25;5093043;28;20691;-58
2022/05/28 00:14:59;;;;;;;9.88;6.72;;;;;;;22.11;80.27;99087.34;5093274;28;20230;-58
2022/05/28 00:17:26;;;;;;;11.45;6.88;;;;;;;22.08;80.91;99071.72;5093214;28;20187;-58
2022/05/28 00:19:54;;;;;;;14.93;7.00;;;;;;;22.00;81.01;99058.31;5093104;28;20201;-57
2022/05/28 00:22:21;;;;;;;15.70;7.18;;;;;;;22.08;81.61;99075.22;5092126;28;20202;-58
2022/05/28 00:24:48;;;;;;;7.63;6.80;;;;;;;22.03;82.33;99072.09;5092905;28;20242;-58
2022/05/28 00:27:15;;;;;;;12.10;7.72;;;;;;;22.02;82.10;99064.28;5092774;28;20207;-58
2022/05/28 00:29:43;;;;;;;9.05;7.00;;;;;;;22.01;82.19;99055.53;5092985;28;20573;-59
2022/05/28 00:32:10;;;;;;;8.75;7.18;;;;;;;22.12;82.17;99065.25;5092741;28;20203;-59
2022/05/28 00:34:40;;;;;;;9.45;6.80;;;;;;;22.25;81.35;99054.44;5092833;28;20278;-58
2022/05/28 00:37:07;;;;;;;7.85;7.15;;;;;;;22.32;80.97;99059.13;5092581;28;20233;-58
2022/05/28 00:39:34;;;;;;;16.23;7.82;;;;;;;22.42;80.54;99051.22;5092668;28;20196;-57
2022/05/28 00:42:02;;;;;;;14.80;7.72;;;;;;;22.48;80.39;99053.34;5092537;28;20195;-58
2022/05/28 00:44:29;;;;;;;11.30;7.45;;;;;;;22.51;80.75;99049.59;5092470;28;20230;-58
2022/05/28 00:46:59;;;;;;;9.65;7.47;;;;;;;22.50;81.27;99058.50;5092271;28;20237;-59
2022/05/28 00:49:30;;;;;;;10.80;7.85;;;;;;;22.36;82.48;99062.31;5092390;28;20589;-59
2022/05/28 00:52:00;;;;;;;11.88;7.60;;;;;;;22.15;83.16;99056.19;5091757;28;20252;-59
2022/05/28 00:54:32;;;;;;;13.70;8.07;;;;;;;22.19;83.38;99061.09;5092029;28;20660;-59
2022/05/28 00:57:00;;;;;;;10.45;8.00;;;;;;;22.37;82.22;99062.19;5092278;28;20202;-58
2022/05/28 00:59:27;;;;;;;18.15;7.97;;;;;;;22.39;81.97;99062.06;5092140;28;20195;-58
2022/05/28 01:02:01;;;;;;;15.73;8.30;;;;;;;22.48;81.34;99060.44;5092295;28;20199;-58
2022/05/28 01:04:36;;;;;;;15.00;8.63;;;;;;;22.51;81.58;99070.75;5092020;28;20250;-58
2022/05/28 01:07:14;;;;;;;9.75;7.97;;;;;;;22.39;82.20;99073.47;5092294;28;20212;-58
2022/05/28 01:09:47;;;;;;;10.68;7.40;;;;;;;22.37;82.59;99070.13;5092180;28;20205;-59
2022/05/28 01:12:16;;;;;;;12.23;8.45;;;;;;;22.37;82.03;99064.00;5091933;28;20199;-58
2022/05/28 01:14:53;;;;;;;10.45;8.07;;;;;;;22.31;82.41;99062.72;5091763;28;20188;-59
2022/05/28 01:17:28;;;;;;;9.93;8.13;;;;;;;22.23;83.03;99065.19;5091980;28;20199;-59
2022/05/28 01:20:02;;;;;;;16.80;8.95;;;;;;;22.12;84.05;99070.53;5092022;28;20701;-59
2022/05/28 01:22:45;;;;;;;19.80;9.57;;;;;;;22.05;84.87;99071.97;5091921;28;20259;-58
2022/05/28 01:25:21;;;;;;;17.38;9.73;;;;;;;22.12;85.14;99065.25;5091523;28;20221;-58
2022/05/28 01:27:54;;;;;;;15.65;9.23;;;;;;;22.08;86.06;99067.28;5091709;28;20195;-59
2022/05/28 01:30:22;;;;;;;18.50;9.60;;;;;;;22.10;86.18;99067.16;5091614;28;20196;-59
2022/05/28 01:32:52;;;;;;;16.65;9.50;;;;;;;22.01;86.27;99063.47;5091752;28;20286;-58
2022/05/28 01:35:22;;;;;;;19.40;9.50;;;;;;;21.92;87.17;99069.47;5091590;28;20191;-59
2022/05/28 01:37:51;;;;;;;16.55;9.35;;;;;;;21.91;87.91;99073.09;5091569;28;20633;-59
2022/05/28 01:40:21;;;;;;;16.55;9.93;;;;;;;21.90;87.94;99071.41;5091249;28;20201;-59
2022/05/28 01:42:52;;;;;;;18.63;9.30;;;;;;;21.80;88.33;99073.13;5091381;28;20215;-58
2022/05/28 01:45:22;;;;;;;19.42;10.02;;;;;;;21.83;88.37;99074.69;5091149;28;20231;-58
2022/05/28 01:47:52;;;;;;;14.27;9.80;;;;;;;21.86;87.93;99069.16;5091348;28;20675;-59
2022/05/28 01:50:21;;;;;;;12.38;9.13;;;;;;;21.77;88.89;99059.34;5091064;28;20196;-58
2022/05/28 01:52:49;;;;;;;15.43;10.60;;;;;;;21.64;89.83;99059.50;5091121;28;20199;-58
2022/05/28 01:55:18;;;;;;;17.17;10.63;;;;;;;21.54;91.70;99056.78;5091104;28;20214;-57
2022/05/28 01:57:46;;;;;;;19.73;9.98;;;;;;;21.57;91.96;99066.22;5090885;28;20199;-57
2022/05/28 02:00:15;;;;;;;16.83;9.48;;;;;;;21.60;92.15;99058.06;5090910;28;20199;-58
2022/05/28 02:02:42;;;;;;;17.83;10.25;;;;;;;21.57;92.82;99051.22;5090848;28;20210;-57
2022/05/28 02:05:11;;;;;;;19.80;9.98;;;;;;;21.61;92.57;99049.19;5090361;28;20215;-58
2022/05/28 02:07:38;;;;;;;18.10;9.88;;;;;;;21.53;93.63;99051.63;5091117;28;20586;-59
2022/05/28 02:10:08;;;;;;;16.45;10.40;;;;;;;21.43;94.95;99054.16;5090827;28;20221;-59
2022/05/28 02:12:41;;;;;;;14.63;11.25;;;;;;;21.38;95.26;99041.31;5090815;28;20716;-58
2022/05/28 02:15:27;;;;;;;13.55;10.55;;;;;;;21.37;95.91;99044.09;5090500;28;20582;-58
2022/05/28 02:18:00;;;;;;;17.85;10.00;;;;;;;21.41;95.68;99040.25;5090774;28;20195;-59
2022/05/28 02:20:34;;;;;;;20.05;10.55;;;;;;;21.40;96.15;99040.38;5090709;28;20195;-58
2022/05/28 02:23:08;;;;;;;12.55;9.80;;;;;;;21.29;97.14;99049.16;5090618;28;20602;-58
2022/05/28 02:25:39;;;;;;;17.45;10.73;;;;;;;21.15;98.97;99044.94;5090443;28;20600;-59
2022/05/28 02:28:08;;;;;;;15.32;10.98;;;;;;;21.00;100.00;99054.91;5090550;28;20195;-58
2022/05/28 02:30:46;;;;;;;17.88;10.85;;;;;;;20.94;100.00;99050.13;5090565;28;20191;-58
2022/05/28 02:33:13;;;;;;;19.13;9.93;;;;;;;20.95;100.00;99059.72;5089578;28;20286;-58
2022/05/28 02:35:40;;;;;;;19.27;10.98;;;;;;;21.01;100.00;99059.22;5090854;28;20602;-58
2022/05/28 02:38:07;;;;;;;23.42;11.45;;;;;;;20.97;100.00;99065.72;5090044;28;20612;-58
2022/05/28 02:40:34;;;;;;;15.20;11.32;;;;;;;20.91;100.00;99075.88;5090354;28;20202;-58
2022/05/28 02:43:01;;;;;;;16.45;10.50;;;;;;;20.73;100.00;99077.34;5090447;28;20199;-59
2022/05/28 02:45:29;;;;;;;15.35;10.80;;;;;;;20.72;100.00;99073.84;5090208;28;20227;-58
2022/05/28 02:47:57;;;;;;;13.85;10.30;;;;;;;20.61;100.00;99076.47;5090155;28;20282;-58
2022/05/28 02:50:26;;;;;;;17.48;10.10;;;;;;;20.63;100.00;99080.69;5087870;28;20637;-59
2022/05/28 02:52:53;;;;;;;15.75;10.40;;;;;;;20.65;100.00;99073.47;5088482;28;20291;-58
2022/05/28 02:55:20;;;;;;;15.50;10.02;;;;;;;20.70;100.00;99086.31;5088304;28;20187;-58
2022/05/28 02:57:47;;;;;;;13.43;10.07;;;;;;;20.71;100.00;99079.25;5089285;28;20196;-57
2022/05/28 03:00:16;;;;;;;17.63;9.95;;;;;;;20.50;100.00;99087.00;5089775;28;20191;-56
2022/05/28 03:02:43;;;;;;;19.10;11.32;;;;;;;20.54;100.00;99083.19;5087216;28;20239;-55
2022/05/28 03:05:12;;;;;;;14.55;10.57;;;;;;;20.62;100.00;99075.53;5089528;28;20227;-55
2022/05/28 03:07:39;;;;;;;14.55;10.27;;;;;;;20.75;100.00;99076.25;5089777;28;20192;-55
2022/05/28 03:10:07;;;;;;;14.15;10.70;;;;;;;20.78;100.00;99073.38;5087414;28;20583;-55
2022/05/28 03:12:34;;;;;;;16.58;10.52;;;;;;;20.76;100.00;99072.69;5080302;28;20647;-55
2022/05/28 03:15:01;;;;;;;18.80;10.77;;;;;;;20.84;100.00;99090.53;5089178;28;20233;-56
2022/05/28 03:17:28;;;;;;;16.13;10.52;;;;;;;20.84;100.00;99093.16;5092735;28;20226;-56
2022/05/28 03:19:55;;;;;;;20.83;11.63;;;;;;;20.74;100.00;99079.84;5093083;28;20732;-56
2022/05/28 03:22:23;;;;;;;17.52;11.13;;;;;;;20.76;100.00;99087.66;5092582;28;20583;-55
2022/05/28 03:24:50;;;;;;;15.50;11.32;;;;;;;20.88;100.00;99091.97;5093290;28;20223;-55
2022/05/28 03:27:17;;;;;;;18.63;12.05;;;;;;;20.96;98.52;99073.75;5092584;28;20219;-57
2022/05/28 03:29:44;;;;;;;15.35;11.05;;;;;;;21.16;98.21;99096.75;5093122;28;20222;-57
2022/05/28 03:32:11;;;;;;;15.68;12.38;;;;;;;21.33;97.61;99087.56;5092315;28;20245;-56
2022/05/28 03:34:38;;;;;;;17.85;12.98;;;;;;;21.49;96.12;99089.78;5093551;28;20608;-56
2022/05/28 03:37:05;;;;;;;19.25;14.20;;;;;;;21.63;95.36;99095.66;5092200;28;20222;-56
2022/05/28 03:39:34;;;;;;;15.82;14.30;;;;;;;21.80;94.29;99101.34;5093203;28;20227;-56
2022/05/28 03:42:01;;;;;;;17.75;13.93;;;;;;;21.84;94.14;99106.28;5092903;28;20221;-57
2022/05/28 03:44:28;;;;;;;19.77;14.27;;;;;;;22.01;93.17;99116.31;5093041;28;20219;-57
2022/05/28 03:46:54;;;;;;;18.02;13.35;;;;;;;22.16;92.50;99122.16;5092641;28;20615;-58
2022/05/28 03:49:26;;;;;;;16.23;14.15;;;;;;;22.34;91.90;99120.63;5091856;28;20687;-57
2022/05/28 03:51:53;;;;;;;17.98;14.25;;;;;;;22.89;87.78;99118.66;5092203;28;20223;-57
2022/05/28 03:54:21;;;;;;;16.25;14.45;;;;;;;23.45;83.38;99126.13;5092426;28;20227;-58
2022/05/28 03:56:51;;;;;;;21.60;14.80;;;;;;;23.93;79.36;99130.72;5093020;28;20298;-58
2022/05/28 03:59:18;;;;;;;16.45;12.90;;;;;;;24.50;74.68;99137.84;5092033;28;20252;-56
2022/05/28 04:01:44;;;;;;;14.30;12.23;;;;;;;24.61;71.22;99135.03;5110680;28;20207;-55
2022/05/28 04:04:11;;;;;;;16.27;11.63;;;;;;;25.00;69.02;99145.59;5092706;28;20198;-58
2022/05/28 04:06:39;;;;;;;17.70;12.45;;;;;;;25.27;68.12;99143.84;5092640;28;20223;-60
2022/05/28 04:09:07;;;;;;;16.50;12.13;;;;;;;25.63;66.20;99151.91;5090334;28;20203;-59
2022/05/28 04:11:35;;;;;;;15.90;13.07;;;;;;;26.07;64.88;99149.41;5090337;28;20202;-59
2022/05/28 04:14:04;;;;;;;14.90;12.95;;;;;;;26.59;63.36;99143.25;5090108;28;20195;-59
2022/05/28 04:16:31;;;;;;;14.25;12.85;;;;;;;27.46;60.01;99145.78;5087703;28;20200;-58
2022/05/28 04:18:58;;;;;;;17.02;12.07;;;;;;;27.58;59.29;99153.53;5090431;28;20700;-59
2022/05/28 04:21:25;;;;;;;16.30;11.32;;;;;;;27.76;59.19;99156.94;5089406;28;20464;-59
2022/05/28 04:23:52;;;;;;;12.48;10.52;;;;;;;28.00;58.03;99167.63;5089292;28;20198;-58
2022/05/28 04:26:19;;;;;;;12.82;11.57;;;;;;;28.15;56.79;99171.34;5088032;28;20226;-59
2022/05/28 04:28:45;;;;;;;14.45;11.30;;;;;;;27.86;58.07;99172.78;5085993;28;20195;-58
2022/05/28 04:31:14;;;;;;;12.02;10.82;;;;;;;28.04;57.50;99161.00;5085108;28;20587;-56
2022/05/28 04:33:41;;;;;;;12.25;10.93;;;;;;;28.69;55.39;99166.38;5088638;28;20689;-56
2022/05/28 04:36:08;;;;;;;13.90;10.73;;;;;;;28.88;54.51;99165.25;5090105;28;20191;-59
2022/05/28 04:38:35;;;;;;;15.77;11.50;;;;;;;29.52;52.03;99158.91;5090576;28;20236;-56
2022/05/28 04:41:01;;;;;;;11.13;9.68;;;;;;;30.33;49.64;99163.81;5091000;28;20221;-55
2022/05/28 04:43:28;;;;;;;13.18;10.35;;;;;;;31.17;47.46;99166.44;5091702;28;20199;-55
2022/05/28 04:45:55;;;;;;;13.75;10.63;;;;;;;31.79;45.90;99166.91;5091325;28;20698;-55
2022/05/28 04:48:23;;;;;;;14.23;9.82;;;;;;;31.92;45.02;99161.69;5091539;28;20199;-55
2022/05/28 04:50:50;;;;;;;15.90;9.27;;;;;;;32.27;44.43;99156.50;5091488;28;20679;-59
2022/05/28 04:53:17;;;;;;;13.93;9.38;;;;;;;32.22;43.45;99140.97;5091277;28;20196;-58
2022/05/28 04:55:45;;;;;;;11.73;8.77;;;;;;;32.11;43.68;99147.63;5091177;28;20199;-61
2022/05/28 04:58:13;;;;;;;10.27;8.40;;;;;;;32.03;43.70;99142.41;5090463;28;20230;-60
2022/05/28 05:00:41;;;;;;;12.63;8.63;;;;;;;32.64;42.25;99145.44;5091487;28;20195;-61
2022/05/28 05:03:08;;;;;;;9.52;8.05;;;;;;;32.91;41.14;99153.75;5091029;28;20195;-58
2022/05/28 05:05:37;;;;;;;10.90;7.70;;;;;;;33.14;41.17;99152.47;5091059;28;20226;-59
2022/05/28 05:08:04;;;;;;;9.27;7.72;;;;;;;33.28;40.72;99161.50;5089547;28;20198;-58
2022/05/28 05:10:31;;;;;;;17.33;7.90;;;;;;;33.92;39.56;99136.09;5090571;28;20585;-58
2022/05/28 05:13:00;;;;;;;13.60;8.07;;;;;;;34.44;38.74;99140.75;5089821;28;20191;-58
2022/05/28 05:15:27;;;;;;;11.27;8.82;;;;;;;35.14;37.31;99145.50;5090089;28;20580;-59
2022/05/28 05:17:54;;;;;;;14.00;7.95;;;;;;;35.58;36.14;99138.53;5089745;28;20581;-60
2022/05/28 05:20:21;;;;;;;15.27;8.02;;;;;;;35.09;36.56;99137.22;5088852;28;20200;-58
2022/05/28 05:22:52;;;;;;;9.70;7.70;;;;;;;35.00;36.39;99133.06;5088736;28;20201;-59
2022/05/28 05:25:19;;;;;;;16.10;8.93;;;;;;;34.43;37.47;99137.22;5088912;28;20217;-58
2022/05/28 05:27:46;;;;;;;11.90;9.13;;;;;;;34.49;37.48;99136.41;5089043;28;20225;-57
2022/05/28 05:30:14;;;;;;;12.18;8.68;;;;;;;35.03;36.61;99132.66;5088838;28;20602;-58
2022/05/28 05:32:41;;;;;;;14.65;9.02;;;;;;;35.56;35.47;99127.09;5086567;28;20199;-58
2022/05/28 05:35:09;;;;;;;9.02;7.90;;;;;;;35.11;35.92;99143.22;5088576;28;20202;-58
2022/05/28 05:37:36;;;;;;;12.60;8.20;;;;;;;35.48;35.23;99152.47;5087278;28;20284;-58
2022/05/28 05:40:05;;;;;;;17.02;9.05;;;;;;;35.60;34.84;99156.19;5081237;28;20291;-58
2022/05/28 05:42:32;;;;;;;13.20;9.00;;;;;;;35.76;34.77;99152.19;5068441;28;20448;-60
2022/05/28 05:44:59;;;;;;;10.80;8.23;;;;;;;36.11;34.24;99160.75;5080116;28;20285;-60
2022/05/28 05:47:26;;;;;;;9.23;7.55;;;;;;;36.23;34.06;99155.50;5086541;28;20223;-58
2022/05/28 05:49:53;;;;;;;10.95;7.80;;;;;;;36.20;34.09;99158.59;5080009;28;20207;-57
2022/05/28 05:52:20;;;;;;;11.02;7.63;;;;;;;36.37;33.98;99162.44;5088300;28;20203;-58
2022/05/28 05:54:47;;;;;;;13.93;8.02;;;;;;;35.73;34.74;99163.41;5088119;28;20205;-57
2022/05/28 05:57:16;;;;;;;12.27;8.52;;;;;;;35.77;34.81;99159.25;5090048;28;20684;-57
2022/05/28 05:59:43;;;;;;;13.63;8.45;;;;;;;36.21;33.94;99166.53;5090820;28;20677;-57
2022/05/28 06:02:10;;;;;;;15.43;8.30;;;;;;;36.14;34.17;99168.38;5090303;28;20195;-58
2022/05/28 06:04:37;;;;;;;14.48;8.25;;;;;;;35.96;34.25;99177.22;5090005;28;20723;-57
2022/05/28 06:07:05;;;;;;;13.20;8.20;;;;;;;36.11;34.15;99178.81;5089240;28;20335;-58
2022/05/28 06:09:32;;;;;;;9.85;7.68;;;;;;;35.91;34.53;99173.50;5089970;28;20678;-58
2022/05/28 06:11:59;;;;;;;13.95;8.50;;;;;;;35.23;35.45;99184.69;5089982;28;20597;-58
2022/05/28 06:14:28;;;;;;;14.00;8.00;;;;;;;35.07;35.81;99190.56;5089575;28;20210;-58
2022/05/28 06:16:54;;;;;;;13.20;8.75;;;;;;;34.85;36.67;99183.72;5089977;28;20191;-58
2022/05/28 06:19:21;;;;;;;14.27;10.10;;;;;;;34.40;37.69;99186.16;5088757;28;20197;-60
2022/05/28 06:21:48;;;;;;;13.32;9.57;;;;;;;34.21;38.13;99170.75;5089612;28;20202;-62
2022/05/28 06:24:15;;;;;;;12.57;9.10;;;;;;;34.38;38.45;99168.53;5090840;28;20570;-61
2022/05/28 06:26:42;;;;;;;15.15;9.32;;;;;;;34.83;37.80;99192.03;5089346;28;20211;-62
2022/05/28 06:29:09;;;;;;;21.48;9.25;;;;;;;34.81;37.49;99171.69;5088765;28;20191;-61
2022/05/28 06:31:37;;;;;;;17.13;8.55;;;;;;;34.22;38.40;99169.72;5090610;28;20584;-61
2022/05/28 06:34:04;;;;;;;18.77;9.93;;;;;;;33.92;38.58;99155.78;5090700;28;20911;-60
2022/05/28 06:36:31;;;;;;;19.83;8.88;;;;;;;33.84;38.39;99170.25;5090283;28;20282;-60
2022/05/28 06:38:58;;;;;;;13.23;8.63;;;;;;;33.59;38.58;99174.47;5090471;28;20191;-61
2022/05/28 06:41:25;;;;;;;11.55;8.80;;;;;;;33.39;39.42;99179.75;5090311;28;20692;-61
2022/05/28 06:43:52;;;;;;;12.75;9.13;;;;;;;32.93;40.09;99174.06;5090233;28;20195;-61
2022/05/28 06:46:19;;;;;;;10.10;8.48;;;;;;;32.78;41.37;99174.13;5089812;28;20226;-61
2022/05/28 06:48:47;;;;;;;12.13;8.30;;;;;;;32.24;41.66;99171.16;5090265;28;20191;-61
2022/05/28 06:51:14;;;;;;;19.00;8.40;;;;;;;31.48;42.73;99171.63;5090340;28;20692;-61
2022/05/28 06:53:45;;;;;;;10.90;7.85;;;;;;;31.25;43.98;99163.69;5090420;28;20328;-64
2022/05/28 06:56:13;;;;;;;12.88;8.05;;;;;;;31.48;43.72;99153.69;5089998;28;20199;-62
2022/05/28 06:58:40;;;;;;;11.23;9.02;;;;;;;31.74;43.19;99164.75;5090153;28;20230;-62
2022/05/28 07:01:09;;;;;;;17.17;8.70;;;;;;;32.50;41.52;99164.38;5090178;28;20198;-62
2022/05/28 07:03:37;;;;;;;11.38;7.93;;;;;;;33.06;40.25;99160.69;5089424;28;20259;-61
2022/05/28 07:06:06;;;;;;;15.82;8.32;;;;;;;33.60;38.73;99159.97;5089947;28;20198;-61
2022/05/28 07:08:33;;;;;;;13.95;8.75;;;;;;;33.85;38.06;99157.63;5090199;28;20593;-61
2022/05/28 07:11:02;;;;;;;17.40;8.00;;;;;;;33.94;37.58;99147.50;5090125;28;20192;-62
2022/05/28 07:13:31;;;;;;;13.82;7.28;;;;;;;34.13;37.45;99131.38;5090125;28;20567;-61
2022/05/28 07:15:58;;;;;;;16.98;7.32;;;;;;;34.33;37.72;99130.59;5090256;28;20623;-61
2022/05/28 07:18:25;;;;;;;13.48;8.20;;;;;;;34.20;37.86;99126.00;5089846;28;20195;-62
2022/05/28 07:20:52;;;;;;;13.52;8.18;;;;;;;34.03;37.50;99116.66;5090062;28;20230;-61
2022/05/28 07:23:23;;;;;;;9.02;7.55;;;;;;;33.98;38.12;99121.78;5089283;28;20643;-61
2022/05/28 07:25:53;;;;;;;10.38;8.73;;;;;;;33.96;38.70;99130.13;5090275;28;20285;-61
2022/05/28 07:28:26;;;;;;;14.50;9.07;;;;;;;34.26;38.02;99119.00;5088089;28;20221;-62
2022/05/28 07:30:53;;;;;;;14.52;8.75;;;;;;;34.73;37.16;99128.75;5088723;28;20195;-62
2022/05/28 07:33:20;;;;;;;17.58;9.18;;;;;;;35.02;36.92;99124.78;5090597;28;20191;-63
2022/05/28 07:35:47;;;;;;;9.90;8.60;;;;;;;35.30;36.22;99120.78;5089868;28;20195;-62
2022/05/28 07:38:14;;;;;;;13.60;7.93;;;;;;;35.52;36.40;99094.34;5089478;28;20642;-61
2022/05/28 07:40:43;;;;;;;11.25;8.38;;;;;;;35.50;36.14;99106.38;5090049;28;20210;-62
2022/05/28 07:43:10;;;;;;;14.60;9.25;;;;;;;35.22;36.79;99104.78;5089902;28;20205;-62
2022/05/28 07:45:41;;;;;;;15.95;8.73;;;;;;;34.49;37.66;99090.59;5089654;28;20236;-63
2022/05/28 07:48:09;;;;;;;12.25;7.72;;;;;;;33.86;38.50;99087.41;5089640;28;20219;-58
2022/05/28 07:50:36;;;;;;;13.55;9.13;;;;;;;33.33;39.83;99082.84;5089661;28;20199;-58
2022/05/28 07:53:04;;;;;;;16.75;8.63;;;;;;;32.80;40.52;99079.88;5089913;28;20195;-59
2022/05/28 07:55:31;;;;;;;14.85;8.32;;;;;;;32.32;41.45;99065.41;5089618;28;20192;-59
2022/05/28 07:58:05;;;;;;;18.00;9.15;;;;;;;32.37;41.90;99063.81;5088983;28;20582;-59
2022/05/28 08:00:32;;;;;;;14.15;8.57;;;;;;;32.23;42.49;99043.25;5089785;28;20282;-59
2022/05/28 08:02:59;;;;;;;18.35;8.45;;;;;;;32.27;41.90;99041.84;5091983;28;20241;-59
2022/05/28 08:05:26;;;;;;;11.38;7.93;;;;;;;32.84;40.72;99037.28;5092965;28;20205;-58
2022/05/28 08:07:54;;;;;;;14.70;7.95;;;;;;;33.47;40.02;99025.38;5093536;28;20699;-58
2022/05/28 08:10:21;;;;;;;15.32;7.88;;;;;;;33.66;39.87;99034.50;5093310;28;20769;-57
2022/05/28 08:12:47;;;;;;;13.55;8.13;;;;;;;33.02;40.21;99024.97;5093251;28;20206;-57
2022/05/28 08:15:16;;;;;;;15.48;8.60;;;;;;;33.12;40.50;99019.22;5093111;28;20563;-58
2022/05/28 08:17:43;;;;;;;20.75;8.45;;;;;;;33.76;39.44;99016.13;5093032;28;20198;-58
2022/05/28 08:20:11;;;;;;;19.75;8.27;;;;;;;34.36;38.63;99011.63;5093062;28;20201;-58
2022/05/28 08:25:22;;;;;;;14.10;8.50;;;;;;;34.45;38.45;99007.66;5093087;28;20280;-58
2022/05/28 08:27:49;;;;;;;13.57;8.27;;;;;;;34.60;38.01;98998.31;5092795;28;20226;-58
2022/05/28 08:30:18;;;;;;;14.13;8.88;;;;;;;35.28;36.94;98995.22;5092502;28;20196;-58
2022/05/28 08:32:45;;;;;;;9.57;8.57;;;;;;;35.44;36.01;98994.69;5092803;28;20195;-59
2022/05/28 08:35:12;;;;;;;13.38;8.45;;;;;;;34.67;37.28;98992.88;5092936;28;20217;-59
2022/05/28 08:37:40;;;;;;;14.25;8.15;;;;;;;34.14;38.08;98995.66;5092774;28;20223;-60
2022/05/28 08:40:08;;;;;;;13.57;7.70;;;;;;;34.06;38.60;98976.19;5092917;28;20199;-59
2022/05/28 08:42:36;;;;;;;10.93;8.05;;;;;;;34.20;38.16;98981.34;5092647;28;20195;-58
2022/05/28 08:45:06;;;;;;;14.90;8.07;;;;;;;34.14;38.30;98990.25;5092357;28;20245;-58
2022/05/28 08:47:39;;;;;;;14.38;7.88;;;;;;;34.39;37.07;98990.47;5091785;28;20225;-59
2022/05/28 08:50:08;;;;;;;10.35;7.57;;;;;;;34.54;36.71;98988.34;5092654;28;20195;-59
2022/05/28 08:52:43;;;;;;;14.07;7.78;;;;;;;34.36;37.54;98985.50;5092540;28;20198;-59
2022/05/28 08:55:16;;;;;;;13.00;8.13;;;;;;;34.17;37.89;98964.78;5091997;28;20581;-59
2022/05/28 08:57:53;;;;;;;15.95;7.80;;;;;;;33.99;37.91;98978.03;5092247;28;20290;-59
2022/05/28 09:00:26;;;;;;;8.93;7.32;;;;;;;33.36;38.59;98978.38;5092511;28;20634;-59
2022/05/28 09:03:01;;;;;;;14.70;8.43;;;;;;;33.32;38.76;98970.88;5091515;28;20199;-59
2022/05/28 09:05:33;;;;;;;15.30;8.15;;;;;;;33.21;39.50;98963.38;5091767;28;20594;-59
2022/05/28 09:08:02;;;;;;;14.18;8.15;;;;;;;33.64;38.42;98948.59;5091791;28;20219;-59
2022/05/28 09:10:35;;;;;;;17.23;8.02;;;;;;;34.11;37.31;98941.38;5091869;28;20199;-58
2022/05/28 09:13:08;;;;;;;13.85;7.55;;;;;;;34.29;36.80;98936.19;5088756;28;20225;-58
2022/05/28 09:15:37;;;;;;;10.63;7.35;;;;;;;34.33;36.85;98948.19;5090217;28;20281;-58
2022/05/28 09:18:06;;;;;;;12.95;8.75;;;;;;;34.52;36.68;98947.34;5088938;28;20193;-58
2022/05/28 09:20:44;;;;;;;9.82;7.63;;;;;;;34.92;35.74;98948.03;5091356;28;20191;-58
2022/05/28 09:23:11;;;;;;;15.15;7.57;;;;;;;35.18;36.52;98935.47;5089156;28;20509;-59
2022/05/28 09:25:43;;;;;;;16.77;8.65;;;;;;;35.56;36.32;98940.84;5090101;28;20195;-58
2022/05/28 09:28:24;;;;;;;11.27;8.55;;;;;;;35.41;37.23;98934.94;5088795;28;20211;-58
2022/05/28 09:31:00;;;;;;;16.90;8.07;;;;;;;34.86;38.53;98948.91;5089372;28;20191;-59
2022/05/28 09:33:54;;;;;;;16.38;8.20;;;;;;;34.28;39.81;98956.09;5088894;28;20198;-58
2022/05/28 09:36:32;;;;;;;11.45;8.23;;;;;;;33.81;40.94;98944.50;5090114;28;20197;-59
2022/05/28 09:39:06;;;;;;;15.15;8.57;;;;;;;33.47;41.90;98950.84;5090428;28;20195;-58
2022/05/28 09:41:43;;;;;;;13.30;8.27;;;;;;;32.95;42.93;98948.84;5088953;28;20190;-59
2022/05/28 09:44:20;;;;;;;12.50;8.55;;;;;;;32.54;43.16;98946.13;5090767;28;20486;-59
2022/05/28 09:46:47;;;;;;;12.98;8.93;;;;;;;32.00;43.92;98937.91;5090092;28;20777;-58
2022/05/28 09:49:18;;;;;;;12.77;8.85;;;;;;;31.69;45.12;98936.44;5090225;28;20198;-58
2022/05/28 09:51:58;;;;;;;12.07;9.13;;;;;;;31.44;46.21;98931.59;5090753;28;20211;-58
2022/05/28 09:54:27;;;;;;;12.25;8.82;;;;;;;31.30;46.50;98930.63;5090072;28;20238;-58
2022/05/28 09:57:01;;;;;;;12.48;8.98;;;;;;;30.67;47.98;98913.41;5088653;28;20671;-58
2022/05/28 09:59:32;;;;;;;14.65;9.07;;;;;;;30.60;48.72;98933.91;5090524;28;20619;-58
2022/05/28 10:02:05;;;;;;;11.98;9.27;;;;;;;30.44;49.02;98934.09;5090055;28;20195;-58
2022/05/28 10:04:33;;;;;;;10.23;8.38;;;;;;;30.26;49.02;98927.25;5087526;28;20190;-58
2022/05/28 10:07:03;;;;;;;14.60;8.43;;;;;;;30.02;49.88;98914.13;5090608;28;20584;-57
2022/05/28 10:09:33;;;;;;;20.05;9.32;;;;;;;29.52;51.05;98912.88;5090265;28;20196;-58
2022/05/28 10:12:02;;;;;;;12.85;8.48;;;;;;;29.31;52.18;98927.88;5090170;28;20202;-58
2022/05/28 10:14:31;;;;;;;9.95;8.07;;;;;;;28.96;53.31;98929.25;5090272;28;20581;-59
2022/05/28 10:17:00;;;;;;;11.07;8.15;;;;;;;28.78;53.57;98932.22;5090512;28;20198;-58
2022/05/28 10:19:36;;;;;;;13.30;8.05;;;;;;;28.64;54.10;98943.59;5090086;28;20199;-58
2022/05/28 10:22:07;;;;;;;9.00;8.05;;;;;;;28.48;55.52;98957.81;5089786;28;20217;-58
2022/05/28 10:24:43;;;;;;;11.55;7.95;;;;;;;28.39;55.15;98956.19;5087181;28;20206;-58
2022/05/28 10:27:25;;;;;;;15.35;8.63;;;;;;;28.41;55.67;98964.84;5089732;28;20199;-58
2022/05/28 10:29:53;;;;;;;9.63;8.35;;;;;;;28.32;55.45;98964.03;5087733;28;20191;-58
2022/05/28 10:32:29;;;;;;;13.02;8.88;;;;;;;28.26;56.42;98967.38;5090143;28;20191;-58
2022/05/28 10:35:13;;;;;;;9.75;8.38;;;;;;;28.21;55.97;98958.22;5087991;28;20282;-57
2022/05/28 10:37:41;;;;;;;13.63;8.63;;;;;;;28.16;55.97;98946.19;5088492;28;20187;-59
2022/05/28 10:40:13;;;;;;;13.60;8.38;;;;;;;28.03;56.70;98939.69;5090157;28;20210;-58
2022/05/28 10:42:41;;;;;;;13.75;8.43;;;;;;;27.97;56.92;98935.88;5090027;28;20197;-59
2022/05/28 10:45:09;;;;;;;9.38;8.18;;;;;;;27.94;57.46;98925.56;5089713;28;20231;-58
2022/05/28 10:48:06;;;;;;;18.08;8.38;;;;;;;27.94;57.62;98925.56;5089501;28;20607;-58
2022/05/28 10:50:46;;;;;;;10.45;7.93;;;;;;;27.82;58.43;98934.91;5068078;28;20200;-58
2022/05/28 10:53:21;;;;;;;14.23;8.60;;;;;;;27.74;59.51;98930.41;5089008;28;20278;-58
2022/05/28 10:56:03;;;;;;;13.48;9.23;;;;;;;27.65;59.98;98930.59;5088610;28;20195;-58
2022/05/28 10:58:42;;;;;;;10.70;8.82;;;;;;;27.67;60.60;98932.06;5088303;28;20604;-58
2022/05/28 11:01:23;;;;;;;14.18;9.02;;;;;;;27.62;60.26;98930.91;5088352;28;20213;-58
2022/05/28 11:04:31;;;;;;;20.20;8.70;;;;;;;27.62;60.57;98936.25;5088530;28;20191;-59
2022/05/28 11:07:30;;;;;;;12.65;8.65;;;;;;;27.59;62.20;98925.91;5089469;28;20187;-58
2022/05/28 11:10:09;;;;;;;13.85;8.57;;;;;;;27.60;61.62;98932.91;5089405;28;20274;-59
2022/05/28 11:12:59;;;;;;;18.63;9.43;;;;;;;27.50;62.48;98921.53;5089552;28;20693;-59
2022/05/28 11:15:37;;;;;;;13.05;8.60;;;;;;;27.51;62.38;98901.88;5087602;28;20286;-60
2022/05/28 11:18:23;;;;;;;15.10;8.75;;;;;;;27.42;62.32;98893.91;5087514;28;20193;-60
2022/05/28 11:21:02;;;;;;;12.02;8.38;;;;;;;27.45;62.28;98882.88;5088666;28;20198;-59
2022/05/28 11:23:58;;;;;;;13.35;8.57;;;;;;;27.39;62.68;98883.56;5087932;28;20191;-60
2022/05/28 11:26:31;;;;;;;14.68;8.43;;;;;;;27.29;62.00;98874.06;5087543;28;20191;-59
2022/05/28 11:29:13;;;;;;;12.82;8.20;;;;;;;27.26;62.17;98887.72;5089451;28;20236;-58
2022/05/28 11:31:46;;;;;;;11.60;7.78;;;;;;;27.24;62.00;98890.53;5086748;28;20194;-58
2022/05/28 11:34:19;;;;;;;17.33;8.90;;;;;;;27.21;62.14;98898.84;5089441;28;20198;-59
2022/05/28 11:36:51;;;;;;;12.90;8.32;;;;;;;27.17;62.08;98899.38;5088346;28;20199;-59
2022/05/28 11:39:24;;;;;;;11.68;8.10;;;;;;;27.14;61.45;98899.69;5093494;28;20197;-59